createdAt,value
2017-01-21T00:00:24.376Z,0
2017-01-21T00:01:24.405Z,0
2017-01-21T00:02:24.029Z,0
2017-01-21T00:03:24.054Z,0
2017-01-21T00:04:23.679Z,0
2017-01-21T00:05:24.896Z,0
2017-01-21T00:06:24.528Z,0
2017-01-21T00:07:24.164Z,0
2017-01-21T00:08:24.193Z,0
2017-01-21T00:09:23.402Z,0
2017-01-21T00:10:23.851Z,0
2017-01-21T00:11:24.652Z,0
2017-01-21T00:12:24.285Z,0
2017-01-21T00:13:24.313Z,0
2017-01-21T00:14:24.738Z,0
2017-01-21T00:15:25.154Z,0
2017-01-21T00:16:24.788Z,0
2017-01-21T00:17:24.811Z,0
2017-01-21T00:18:24.449Z,0
2017-01-21T00:19:24.866Z,0
2017-01-21T00:20:24.099Z,0
2017-01-21T00:21:24.924Z,0
2017-01-21T00:22:24.548Z,0
2017-01-21T00:23:24.964Z,0
2017-01-21T00:24:24.217Z,0
2017-01-21T00:25:23.830Z,0
2017-01-21T00:26:25.045Z,0
2017-01-21T00:27:24.287Z,0
2017-01-21T00:28:24.304Z,0
2017-01-21T00:29:25.116Z,0
2017-01-21T00:30:25.170Z,0
2017-01-21T00:31:25.173Z,0
2017-01-21T00:32:24.799Z,0
2017-01-21T00:33:25.215Z,0
2017-01-21T00:34:24.848Z,0
2017-01-21T00:35:24.089Z,0
2017-01-21T00:36:24.505Z,0
2017-01-21T00:37:24.930Z,0
2017-01-21T00:38:24.560Z,0
2017-01-21T00:39:25.376Z,0
2017-01-21T00:40:24.609Z,0
2017-01-21T00:41:24.636Z,0
2017-01-21T00:42:25.050Z,0
2017-01-21T00:43:25.478Z,0
2017-01-21T00:44:25.498Z,0
2017-01-21T00:45:24.746Z,0
2017-01-21T00:46:25.548Z,0
2017-01-21T00:47:24.788Z,0
2017-01-21T00:48:24.809Z,0
2017-01-21T00:49:25.629Z,0
2017-01-21T00:50:25.273Z,0
2017-01-21T00:51:24.898Z,0
2017-01-21T00:52:24.514Z,0
2017-01-21T00:53:24.931Z,0
2017-01-21T00:54:24.964Z,0
2017-01-21T00:55:24.989Z,0
2017-01-21T00:56:25.010Z,0
2017-01-21T00:57:25.437Z,0
2017-01-21T00:58:25.859Z,0
2017-01-21T00:59:26.307Z,0
2017-01-21T01:00:25.916Z,0
2017-01-21T01:01:25.154Z,0
2017-01-21T01:02:25.189Z,0
2017-01-21T01:03:25.585Z,0
2017-01-21T01:04:26.410Z,0
2017-01-21T01:05:25.635Z,0
2017-01-21T01:06:25.664Z,0
2017-01-21T01:07:25.688Z,0
2017-01-21T01:08:26.109Z,0
2017-01-21T01:09:25.739Z,0
2017-01-21T01:10:25.900Z,0
2017-01-21T01:11:25.794Z,0
2017-01-21T01:12:25.420Z,0
2017-01-21T01:13:25.469Z,0
2017-01-21T01:14:25.077Z,0
2017-01-21T01:15:26.281Z,0
2017-01-21T01:16:25.918Z,0
2017-01-21T01:17:25.935Z,0
2017-01-21T01:18:25.175Z,0
2017-01-21T01:19:25.608Z,0
2017-01-21T01:20:26.415Z,0
2017-01-21T01:21:25.650Z,0
2017-01-21T01:22:26.066Z,0
2017-01-21T01:23:25.303Z,0
2017-01-21T01:24:25.748Z,0
2017-01-21T01:25:26.145Z,0
2017-01-21T01:26:26.169Z,0
2017-01-21T01:27:26.197Z,0
2017-01-21T01:28:26.218Z,0
2017-01-21T01:29:26.251Z,0
2017-01-21T01:30:25.867Z,0
2017-01-21T01:31:26.301Z,0
2017-01-21T01:32:26.314Z,0
2017-01-21T01:33:26.350Z,0
2017-01-21T01:34:25.978Z,0
2017-01-21T01:35:26.392Z,0
2017-01-21T01:36:26.420Z,0
2017-01-21T01:37:26.845Z,0
2017-01-21T01:38:26.453Z,0
2017-01-21T01:39:26.107Z,0
2017-01-21T01:40:26.955Z,0
2017-01-21T01:41:26.944Z,0
2017-01-21T01:42:26.968Z,0
2017-01-21T01:43:26.602Z,0
2017-01-21T01:44:27.018Z,0
2017-01-21T01:45:26.646Z,0
2017-01-21T01:46:27.071Z,0
2017-01-21T01:47:25.905Z,0
2017-01-21T01:48:25.937Z,0
2017-01-21T01:49:26.742Z,0
2017-01-21T01:50:27.178Z,0
2017-01-21T01:51:26.010Z,0
2017-01-21T01:52:26.436Z,0
2017-01-21T01:53:26.857Z,0
2017-01-21T01:54:26.485Z,0
2017-01-21T01:55:26.502Z,0
2017-01-21T01:56:26.931Z,0
2017-01-21T01:57:27.347Z,0
2017-01-21T01:58:26.984Z,0
2017-01-21T01:59:26.597Z,0
2017-01-21T02:00:26.626Z,0
2017-01-21T02:01:26.258Z,0
2017-01-21T02:02:26.683Z,0
2017-01-21T02:03:26.708Z,0
2017-01-21T02:04:27.125Z,0
2017-01-21T02:05:27.549Z,0
2017-01-21T02:06:27.581Z,0
2017-01-21T02:07:27.215Z,0
2017-01-21T02:08:27.219Z,0
2017-01-21T02:09:26.872Z,0
2017-01-21T02:10:26.889Z,0
2017-01-21T02:11:26.903Z,0
2017-01-21T02:12:26.935Z,0
2017-01-21T02:13:26.991Z,0
2017-01-21T02:14:28.173Z,0
2017-01-21T02:15:27.401Z,0
2017-01-21T02:16:27.057Z,0
2017-01-21T02:17:26.667Z,0
2017-01-21T02:18:27.483Z,0
2017-01-21T02:19:27.112Z,0
2017-01-21T02:20:27.540Z,0
2017-01-21T02:21:27.974Z,0
2017-01-21T02:22:27.979Z,0
2017-01-21T02:23:28.011Z,0
2017-01-21T02:24:27.632Z,0
2017-01-21T02:25:27.268Z,0
2017-01-21T02:26:26.877Z,0
2017-01-21T02:27:28.134Z,0
2017-01-21T02:28:27.339Z,0
2017-01-21T02:29:27.760Z,0
2017-01-21T02:30:28.576Z,0
2017-01-21T02:31:28.201Z,0
2017-01-21T02:32:27.434Z,0
2017-01-21T02:33:27.064Z,0
2017-01-21T02:34:27.892Z,0
2017-01-21T02:35:27.916Z,0
2017-01-21T02:36:28.333Z,0
2017-01-21T02:37:27.956Z,0
2017-01-21T02:38:27.979Z,0
2017-01-21T02:39:28.004Z,0
2017-01-21T02:40:27.241Z,0
2017-01-21T02:41:27.264Z,0
2017-01-21T02:42:27.686Z,0
2017-01-21T02:43:28.506Z,0
2017-01-21T02:44:27.735Z,0
2017-01-21T02:45:28.952Z,0
2017-01-21T02:46:28.190Z,0
2017-01-21T02:47:28.605Z,0
2017-01-21T02:48:28.250Z,0
2017-01-21T02:49:27.459Z,0
2017-01-21T02:50:29.080Z,0
2017-01-21T02:51:28.716Z,0
2017-01-21T02:52:27.545Z,0
2017-01-21T02:53:27.966Z,0
2017-01-21T02:54:29.183Z,0
2017-01-21T02:55:28.799Z,0
2017-01-21T02:56:27.640Z,0
2017-01-21T02:57:28.857Z,0
2017-01-21T02:58:27.698Z,0
2017-01-21T02:59:28.904Z,0
2017-01-21T03:00:28.527Z,0
2017-01-21T03:01:28.564Z,0
2017-01-21T03:02:29.369Z,0
2017-01-21T03:03:29.009Z,0
2017-01-21T03:04:27.846Z,0
2017-01-21T03:05:28.671Z,0
2017-01-21T03:06:28.292Z,0
2017-01-21T03:07:28.344Z,0
2017-01-21T03:08:28.336Z,0
2017-01-21T03:09:28.762Z,0
2017-01-21T03:10:28.783Z,0
2017-01-21T03:11:28.812Z,0
2017-01-21T03:12:28.437Z,0
2017-01-21T03:13:29.299Z,0
2017-01-21T03:14:28.494Z,0
2017-01-21T03:15:29.306Z,0
2017-01-21T03:16:29.323Z,0
2017-01-21T03:17:28.960Z,0
2017-01-21T03:18:28.993Z,0
2017-01-21T03:19:28.609Z,0
2017-01-21T03:20:29.822Z,0
2017-01-21T03:21:28.655Z,0
2017-01-21T03:22:28.696Z,0
2017-01-21T03:23:29.113Z,0
2017-01-21T03:24:29.137Z,0
2017-01-21T03:25:29.558Z,0
2017-01-21T03:26:29.579Z,0
2017-01-21T03:27:30.012Z,0
2017-01-21T03:28:29.232Z,0
2017-01-21T03:29:28.461Z,0
2017-01-21T03:30:29.282Z,0
2017-01-21T03:31:29.311Z,0
2017-01-21T03:32:29.736Z,0
2017-01-21T03:33:29.361Z,0
2017-01-21T03:34:29.014Z,0
2017-01-21T03:35:29.794Z,0
2017-01-21T03:36:29.434Z,0
2017-01-21T03:37:29.463Z,0
2017-01-21T03:38:29.088Z,0
2017-01-21T03:39:29.894Z,0
2017-01-21T03:40:29.921Z,0
2017-01-21T03:41:29.954Z,0
2017-01-21T03:42:29.970Z,0
2017-01-21T03:43:29.996Z,0
2017-01-21T03:44:29.661Z,0
2017-01-21T03:45:29.261Z,0
2017-01-21T03:46:29.286Z,0
2017-01-21T03:47:29.714Z,0
2017-01-21T03:48:30.155Z,0
2017-01-21T03:49:30.156Z,0
2017-01-21T03:50:30.577Z,0
2017-01-21T03:51:29.793Z,0
2017-01-21T03:52:29.032Z,0
2017-01-21T03:53:29.459Z,0
2017-01-21T03:54:29.480Z,0
2017-01-21T03:55:29.904Z,0
2017-01-21T03:56:29.922Z,0
2017-01-21T03:57:30.350Z,0
2017-01-21T03:58:29.187Z,0
2017-01-21T03:59:29.211Z,0
2017-01-21T04:00:30.041Z,0
2017-01-21T04:01:30.057Z,0
2017-01-21T04:02:29.682Z,0
2017-01-21T04:03:30.102Z,0
2017-01-21T04:04:30.923Z,0
2017-01-21T04:05:30.543Z,0
2017-01-21T04:06:29.774Z,0
2017-01-21T04:07:30.201Z,0
2017-01-21T04:08:31.030Z,0
2017-01-21T04:09:29.475Z,0
2017-01-21T04:10:29.476Z,0
2017-01-21T04:11:30.308Z,0
2017-01-21T04:12:30.717Z,0
2017-01-21T04:13:29.958Z,0
2017-01-21T04:14:30.374Z,0
2017-01-21T04:15:30.007Z,0
2017-01-21T04:16:31.243Z,0
2017-01-21T04:17:30.842Z,0
2017-01-21T04:18:30.081Z,0
2017-01-21T04:19:29.710Z,0
2017-01-21T04:20:30.519Z,0
2017-01-21T04:21:29.759Z,0
2017-01-21T04:22:30.168Z,0
2017-01-21T04:23:30.593Z,0
2017-01-21T04:24:30.630Z,0
2017-01-21T04:25:30.650Z,0
2017-01-21T04:26:31.067Z,0
2017-01-21T04:27:31.484Z,0
2017-01-21T04:28:31.117Z,0
2017-01-21T04:29:30.349Z,0
2017-01-21T04:30:30.374Z,0
2017-01-21T04:31:30.795Z,0
2017-01-21T04:32:31.215Z,0
2017-01-21T04:33:30.845Z,0
2017-01-21T04:34:30.477Z,0
2017-01-21T04:35:30.890Z,0
2017-01-21T04:36:31.706Z,0
2017-01-21T04:37:30.944Z,0
2017-01-21T04:38:30.580Z,0
2017-01-21T04:39:31.380Z,0
2017-01-21T04:40:31.017Z,0
2017-01-21T04:41:31.042Z,0
2017-01-21T04:42:31.459Z,0
2017-01-21T04:43:31.883Z,0
2017-01-21T04:44:30.328Z,0
2017-01-21T04:45:30.740Z,0
2017-01-21T04:46:31.154Z,0
2017-01-21T04:47:30.794Z,0
2017-01-21T04:48:31.215Z,0
2017-01-21T04:49:31.240Z,0
2017-01-21T04:50:31.652Z,0
2017-01-21T04:51:30.877Z,0
2017-01-21T04:52:30.522Z,0
2017-01-21T04:53:30.955Z,0
2017-01-21T04:54:31.363Z,0
2017-01-21T04:55:30.596Z,0
2017-01-21T04:56:31.009Z,0
2017-01-21T04:57:31.446Z,0
2017-01-21T04:58:32.254Z,0
2017-01-21T04:59:31.479Z,0
2017-01-21T05:00:31.503Z,0
2017-01-21T05:01:31.524Z,0
2017-01-21T05:02:31.181Z,0
2017-01-21T05:03:31.983Z,0
2017-01-21T05:04:31.211Z,0
2017-01-21T05:05:32.019Z,0
2017-01-21T05:06:32.055Z,0
2017-01-21T05:07:31.672Z,0
2017-01-21T05:08:31.698Z,0
2017-01-21T05:09:31.334Z,0
2017-01-21T05:10:32.549Z,0
2017-01-21T05:11:31.387Z,0
2017-01-21T05:12:32.620Z,0
2017-01-21T05:13:31.833Z,0
2017-01-21T05:14:31.854Z,0
2017-01-21T05:15:31.085Z,0
2017-01-21T05:16:31.511Z,0
2017-01-21T05:17:32.328Z,0
2017-01-21T05:18:31.952Z,0
2017-01-21T05:19:31.189Z,0
2017-01-21T05:20:32.790Z,0
2017-01-21T05:21:32.419Z,0
2017-01-21T05:22:32.043Z,0
2017-01-21T05:23:31.280Z,0
2017-01-21T05:24:32.496Z,0
2017-01-21T05:25:31.729Z,0
2017-01-21T05:26:32.146Z,0
2017-01-21T05:27:32.175Z,0
2017-01-21T05:28:32.187Z,0
2017-01-21T05:29:32.624Z,0
2017-01-21T05:30:32.645Z,0
2017-01-21T05:31:31.877Z,0
2017-01-21T05:32:31.886Z,0
2017-01-21T05:33:32.324Z,0
2017-01-21T05:34:31.560Z,0
2017-01-21T05:35:32.760Z,0
2017-01-21T05:36:32.826Z,0
2017-01-21T05:37:32.426Z,0
2017-01-21T05:38:32.845Z,0
2017-01-21T05:39:32.075Z,0
2017-01-21T05:40:31.695Z,0
2017-01-21T05:41:32.517Z,0
2017-01-21T05:42:31.742Z,0
2017-01-21T05:43:32.166Z,0
2017-01-21T05:44:33.395Z,0
2017-01-21T05:45:32.217Z,0
2017-01-21T05:46:32.240Z,0
2017-01-21T05:47:31.869Z,0
2017-01-21T05:48:32.294Z,0
2017-01-21T05:49:32.710Z,0
2017-01-21T05:50:32.335Z,0
2017-01-21T05:51:32.371Z,0
2017-01-21T05:52:33.568Z,0
2017-01-21T05:53:33.605Z,0
2017-01-21T05:54:33.234Z,0
2017-01-21T05:55:32.858Z,0
2017-01-21T05:56:32.891Z,0
2017-01-21T05:57:33.308Z,0
2017-01-21T05:58:32.941Z,0
2017-01-21T05:59:32.562Z,0
2017-01-21T06:00:33.383Z,0
2017-01-21T06:01:33.395Z,0
2017-01-21T06:02:33.824Z,0
2017-01-21T06:03:32.672Z,0
2017-01-21T06:04:33.081Z,0
2017-01-21T06:05:33.498Z,0
2017-01-21T06:06:32.735Z,0
2017-01-21T06:07:33.156Z,0
2017-01-21T06:08:33.188Z,0
2017-01-21T06:09:32.813Z,0
2017-01-21T06:10:32.821Z,0
2017-01-21T06:11:32.850Z,0
2017-01-21T06:12:32.879Z,0
2017-01-21T06:13:33.304Z,0
2017-01-21T06:14:33.728Z,0
2017-01-21T06:15:33.356Z,0
2017-01-21T06:16:33.378Z,0
2017-01-21T06:17:33.802Z,0
2017-01-21T06:18:34.228Z,0
2017-01-21T06:19:34.239Z,0
2017-01-21T06:20:33.076Z,0
2017-01-21T06:21:33.105Z,0
2017-01-21T06:22:32.734Z,0
2017-01-21T06:23:33.551Z,0
2017-01-21T06:24:33.579Z,0
2017-01-21T06:25:33.212Z,0
2017-01-21T06:26:33.621Z,0
2017-01-21T06:27:34.445Z,0
2017-01-21T06:28:33.667Z,0
2017-01-21T06:29:33.703Z,0
2017-01-21T06:30:33.732Z,0
2017-01-21T06:31:33.364Z,0
2017-01-21T06:32:33.379Z,0
2017-01-21T06:33:33.802Z,0
2017-01-21T06:34:33.470Z,0
2017-01-21T06:35:34.252Z,0
2017-01-21T06:36:33.899Z,0
2017-01-21T06:37:33.901Z,0
2017-01-21T06:38:33.137Z,0
2017-01-21T06:39:33.554Z,0
2017-01-21T06:40:33.182Z,0
2017-01-21T06:41:34.399Z,0
2017-01-21T06:42:33.620Z,0
2017-01-21T06:43:33.653Z,0
2017-01-21T06:44:34.476Z,0
2017-01-21T06:45:33.738Z,0
2017-01-21T06:46:34.122Z,0
2017-01-21T06:47:34.151Z,0
2017-01-21T06:48:34.180Z,0
2017-01-21T06:49:33.807Z,0
2017-01-21T06:50:34.627Z,0
2017-01-21T06:51:34.254Z,0
2017-01-21T06:52:33.891Z,0
2017-01-21T06:53:35.091Z,0
2017-01-21T06:54:34.724Z,0
2017-01-21T06:55:34.741Z,0
2017-01-21T06:56:34.434Z,0
2017-01-21T06:57:34.406Z,0
2017-01-21T06:58:34.439Z,0
2017-01-21T06:59:34.848Z,0
2017-01-21T07:00:34.477Z,0
2017-01-21T07:01:33.705Z,0
2017-01-21T07:02:34.142Z,0
2017-01-21T07:03:34.955Z,0
2017-01-21T07:04:34.178Z,0
2017-01-21T07:05:34.595Z,0
2017-01-21T07:06:33.825Z,0
2017-01-21T07:07:34.257Z,0
2017-01-21T07:08:34.669Z,0
2017-01-21T07:09:34.702Z,0
2017-01-21T07:10:34.323Z,0
2017-01-21T07:11:35.148Z,0
2017-01-21T07:12:34.379Z,0
2017-01-21T07:13:34.397Z,0
2017-01-21T07:14:34.430Z,0
2017-01-21T07:15:34.459Z,0
2017-01-21T07:16:34.484Z,0
2017-01-21T07:17:34.487Z,0
2017-01-21T07:18:34.537Z,0
2017-01-21T07:19:34.955Z,0
2017-01-21T07:20:35.029Z,0
2017-01-21T07:21:35.383Z,0
2017-01-21T07:22:34.624Z,0
2017-01-21T07:23:35.052Z,0
2017-01-21T07:24:34.282Z,0
2017-01-21T07:25:34.701Z,0
2017-01-21T07:26:34.727Z,0
2017-01-21T07:27:34.755Z,0
2017-01-21T07:28:35.172Z,0
2017-01-21T07:29:35.200Z,0
2017-01-21T07:30:35.221Z,0
2017-01-21T07:31:35.248Z,0
2017-01-21T07:32:34.892Z,0
2017-01-21T07:33:34.903Z,0
2017-01-21T07:34:35.332Z,0
2017-01-21T07:35:34.953Z,0
2017-01-21T07:36:35.378Z,0
2017-01-21T07:37:35.011Z,0
2017-01-21T07:38:35.819Z,0
2017-01-21T07:39:35.456Z,0
2017-01-21T07:40:35.889Z,0
2017-01-21T07:41:35.101Z,0
2017-01-21T07:42:35.921Z,0
2017-01-21T07:43:35.950Z,0
2017-01-21T07:44:34.791Z,0
2017-01-21T07:45:35.223Z,0
2017-01-21T07:46:35.650Z,0
2017-01-21T07:47:36.056Z,0
2017-01-21T07:48:36.470Z,0
2017-01-21T07:49:35.691Z,0
2017-01-21T07:50:34.959Z,0
2017-01-21T07:51:35.353Z,0
2017-01-21T07:52:36.165Z,0
2017-01-21T07:53:36.205Z,0
2017-01-21T07:54:35.435Z,0
2017-01-21T07:55:35.459Z,0
2017-01-21T07:56:36.268Z,0
2017-01-21T07:57:35.517Z,5
2017-01-21T07:58:35.921Z,5
2017-01-21T07:59:35.954Z,5
2017-01-21T08:00:35.214Z,5
2017-01-21T08:01:35.615Z,5
2017-01-21T08:02:36.023Z,5
2017-01-21T08:03:36.049Z,5
2017-01-21T08:04:36.079Z,5
2017-01-21T08:05:36.510Z,5
2017-01-21T08:06:36.923Z,5
2017-01-21T08:07:35.367Z,5
2017-01-21T08:08:35.783Z,5
2017-01-21T08:09:36.203Z,5
2017-01-21T08:10:36.237Z,5
2017-01-21T08:11:36.249Z,5
2017-01-21T08:12:36.669Z,5
2017-01-21T08:13:36.706Z,5
2017-01-21T08:14:37.115Z,5
2017-01-21T08:15:35.955Z,5
2017-01-21T08:16:36.012Z,5
2017-01-21T08:17:36.008Z,5
2017-01-21T08:18:36.433Z,5
2017-01-21T08:19:36.454Z,5
2017-01-21T08:20:36.483Z,5
2017-01-21T08:21:36.103Z,5
2017-01-21T08:22:37.324Z,5
2017-01-21T08:23:37.339Z,10
2017-01-21T08:24:36.184Z,10
2017-01-21T08:25:36.604Z,10
2017-01-21T08:26:37.022Z,10
2017-01-21T08:27:36.250Z,15
2017-01-21T08:28:36.667Z,15
2017-01-21T08:29:36.304Z,20
2017-01-21T08:30:37.128Z,25
2017-01-21T08:31:37.146Z,30
2017-01-21T08:32:37.173Z,30
2017-01-21T08:33:37.194Z,30
2017-01-21T08:34:36.031Z,30
2017-01-21T08:35:36.459Z,30
2017-01-21T08:36:36.476Z,30
2017-01-21T08:37:37.296Z,30
2017-01-21T08:38:36.521Z,30
2017-01-21T08:39:37.762Z,30
2017-01-21T08:40:37.771Z,30
2017-01-21T08:41:37.803Z,30
2017-01-21T08:42:36.223Z,30
2017-01-21T08:43:36.656Z,30
2017-01-21T08:44:36.693Z,30
2017-01-21T08:45:37.526Z,30
2017-01-21T08:46:36.726Z,30
2017-01-21T08:47:37.943Z,30
2017-01-21T08:48:37.195Z,30
2017-01-21T08:49:37.212Z,35
2017-01-21T08:50:36.833Z,35
2017-01-21T08:51:37.253Z,35
2017-01-21T08:52:36.886Z,35
2017-01-21T08:53:37.314Z,35
2017-01-21T08:54:37.323Z,35
2017-01-21T08:55:36.960Z,35
2017-01-21T08:56:38.169Z,35
2017-01-21T08:57:37.406Z,35
2017-01-21T08:58:37.030Z,35
2017-01-21T08:59:37.859Z,35
2017-01-21T09:00:37.084Z,35
2017-01-21T09:01:38.292Z,35
2017-01-21T09:02:37.530Z,35
2017-01-21T09:03:37.167Z,35
2017-01-21T09:04:38.374Z,35
2017-01-21T09:05:37.604Z,30
2017-01-21T09:06:37.633Z,30
2017-01-21T09:07:38.049Z,30
2017-01-21T09:08:38.066Z,30
2017-01-21T09:09:38.099Z,30
2017-01-21T09:10:38.127Z,30
2017-01-21T09:11:38.152Z,30
2017-01-21T09:12:38.180Z,30
2017-01-21T09:13:38.201Z,30
2017-01-21T09:14:38.614Z,30
2017-01-21T09:15:38.270Z,30
2017-01-21T09:16:37.487Z,30
2017-01-21T09:17:38.303Z,30
2017-01-21T09:18:37.145Z,30
2017-01-21T09:19:37.178Z,30
2017-01-21T09:20:38.374Z,30
2017-01-21T09:21:37.603Z,30
2017-01-21T09:22:37.246Z,30
2017-01-21T09:23:38.860Z,30
2017-01-21T09:24:38.478Z,30
2017-01-21T09:25:52.629Z,30
2017-01-21T09:26:38.143Z,30
2017-01-21T09:27:38.156Z,30
2017-01-21T09:28:38.188Z,30
2017-01-21T09:29:38.604Z,30
2017-01-21T09:30:38.221Z,30
2017-01-21T09:31:37.866Z,35
2017-01-21T09:32:38.281Z,35
2017-01-21T09:33:37.911Z,35
2017-01-21T09:34:37.560Z,35
2017-01-21T09:35:38.762Z,35
2017-01-21T09:36:38.773Z,35
2017-01-21T09:37:38.025Z,35
2017-01-21T09:38:38.830Z,35
2017-01-21T09:39:38.070Z,35
2017-01-21T09:40:38.084Z,35
2017-01-21T09:41:38.520Z,35
2017-01-21T09:42:37.740Z,35
2017-01-21T09:43:38.953Z,35
2017-01-21T09:44:38.190Z,35
2017-01-21T09:45:39.002Z,35
2017-01-21T09:46:38.246Z,35
2017-01-21T09:47:38.267Z,35
2017-01-21T09:48:38.284Z,35
2017-01-21T09:49:39.500Z,35
2017-01-21T09:50:39.157Z,35
2017-01-21T09:51:39.145Z,35
2017-01-21T09:52:39.179Z,35
2017-01-21T09:53:39.600Z,35
2017-01-21T09:54:38.443Z,35
2017-01-21T09:55:39.248Z,35
2017-01-21T09:56:39.284Z,30
2017-01-21T09:57:39.308Z,30
2017-01-21T09:58:38.546Z,30
2017-01-21T09:59:38.962Z,30
2017-01-21T10:00:39.399Z,30
2017-01-21T10:01:39.408Z,30
2017-01-21T10:02:38.640Z,30
2017-01-21T10:03:39.864Z,30
2017-01-21T10:04:39.097Z,30
2017-01-21T10:05:38.722Z,25
2017-01-21T10:06:39.142Z,25
2017-01-21T10:07:39.163Z,25
2017-01-21T10:08:39.200Z,25
2017-01-21T10:09:38.835Z,25
2017-01-21T10:10:39.624Z,25
2017-01-21T10:11:39.265Z,25
2017-01-21T10:12:38.889Z,25
2017-01-21T10:13:39.310Z,25
2017-01-21T10:14:38.959Z,25
2017-01-21T10:15:39.371Z,25
2017-01-21T10:16:39.000Z,25
2017-01-21T10:17:39.425Z,25
2017-01-21T10:18:39.844Z,25
2017-01-21T10:19:39.469Z,25
2017-01-21T10:20:39.092Z,30
2017-01-21T10:21:39.126Z,25
2017-01-21T10:22:39.152Z,25
2017-01-21T10:23:39.592Z,25
2017-01-21T10:24:39.997Z,25
2017-01-21T10:25:40.086Z,25
2017-01-21T10:26:39.661Z,25
2017-01-21T10:27:39.672Z,30
2017-01-21T10:28:39.304Z,30
2017-01-21T10:29:39.728Z,30
2017-01-21T10:30:38.963Z,30
2017-01-21T10:31:39.386Z,30
2017-01-21T10:32:39.808Z,30
2017-01-21T10:33:39.864Z,30
2017-01-21T10:34:39.861Z,30
2017-01-21T10:35:40.278Z,30
2017-01-21T10:36:40.698Z,30
2017-01-21T10:37:39.944Z,30
2017-01-21T10:38:39.952Z,30
2017-01-21T10:39:39.605Z,35
2017-01-21T10:40:40.060Z,35
2017-01-21T10:41:39.678Z,35
2017-01-21T10:42:39.676Z,35
2017-01-21T10:43:40.896Z,35
2017-01-21T10:44:40.933Z,35
2017-01-21T10:45:40.141Z,35
2017-01-21T10:46:39.776Z,35
2017-01-21T10:47:40.626Z,30
2017-01-21T10:48:40.219Z,25
2017-01-21T10:49:40.644Z,25
2017-01-21T10:50:40.665Z,25
2017-01-21T10:51:40.702Z,25
2017-01-21T10:52:40.731Z,25
2017-01-21T10:53:40.771Z,25
2017-01-21T10:54:40.772Z,25
2017-01-21T10:55:40.409Z,25
2017-01-21T10:56:40.434Z,25
2017-01-21T10:57:40.866Z,25
2017-01-21T10:58:40.495Z,25
2017-01-21T10:59:40.504Z,25
2017-01-21T11:00:41.333Z,25
2017-01-21T11:01:40.970Z,30
2017-01-21T11:02:41.379Z,30
2017-01-21T11:03:41.412Z,25
2017-01-21T11:04:40.245Z,25
2017-01-21T11:05:40.281Z,25
2017-01-21T11:06:40.702Z,25
2017-01-21T11:07:40.329Z,25
2017-01-21T11:08:41.140Z,25
2017-01-21T11:09:41.167Z,30
2017-01-21T11:10:40.822Z,35
2017-01-21T11:11:41.606Z,35
2017-01-21T11:12:40.851Z,35
2017-01-21T11:13:40.080Z,35
2017-01-21T11:14:40.898Z,35
2017-01-21T11:15:41.334Z,35
2017-01-21T11:16:40.992Z,35
2017-01-21T11:17:41.376Z,40
2017-01-21T11:18:40.613Z,40
2017-01-21T11:19:41.822Z,45
2017-01-21T11:20:41.054Z,45
2017-01-21T11:21:41.479Z,50
2017-01-21T11:22:41.116Z,50
2017-01-21T11:23:40.745Z,50
2017-01-21T11:24:41.163Z,55
2017-01-21T11:25:41.200Z,55
2017-01-21T11:26:41.616Z,50
2017-01-21T11:27:41.245Z,50
2017-01-21T11:28:41.658Z,50
2017-01-21T11:29:42.111Z,50
2017-01-21T11:30:41.716Z,50
2017-01-21T11:31:42.136Z,50
2017-01-21T11:32:41.393Z,55
2017-01-21T11:33:42.190Z,55
2017-01-21T11:34:41.427Z,55
2017-01-21T11:35:41.053Z,55
2017-01-21T11:36:41.481Z,55
2017-01-21T11:37:40.714Z,55
2017-01-21T11:38:41.931Z,55
2017-01-21T11:39:42.348Z,55
2017-01-21T11:40:41.981Z,55
2017-01-21T11:41:41.209Z,55
2017-01-21T11:42:40.847Z,50
2017-01-21T11:43:41.679Z,50
2017-01-21T11:44:41.688Z,50
2017-01-21T11:45:42.113Z,50
2017-01-21T11:46:41.754Z,50
2017-01-21T11:47:41.371Z,50
2017-01-21T11:48:42.593Z,50
2017-01-21T11:49:41.817Z,50
2017-01-21T11:50:41.874Z,45
2017-01-21T11:51:42.265Z,45
2017-01-21T11:52:42.306Z,45
2017-01-21T11:53:41.931Z,45
2017-01-21T11:54:41.564Z,45
2017-01-21T11:55:41.577Z,45
2017-01-21T11:56:41.610Z,45
2017-01-21T11:57:42.039Z,40
2017-01-21T11:58:42.464Z,40
2017-01-21T11:59:41.693Z,40
2017-01-21T12:00:41.753Z,40
2017-01-21T12:01:42.931Z,40
2017-01-21T12:02:42.568Z,40
2017-01-21T12:03:42.976Z,40
2017-01-21T12:04:41.829Z,35
2017-01-21T12:05:41.845Z,35
2017-01-21T12:06:41.474Z,35
2017-01-21T12:07:42.303Z,35
2017-01-21T12:08:41.928Z,35
2017-01-21T12:09:42.353Z,35
2017-01-21T12:10:41.978Z,30
2017-01-21T12:11:42.406Z,30
2017-01-21T12:12:42.028Z,30
2017-01-21T12:13:43.250Z,30
2017-01-21T12:14:42.485Z,30
2017-01-21T12:15:42.902Z,30
2017-01-21T12:16:42.935Z,30
2017-01-21T12:17:42.564Z,30
2017-01-21T12:18:42.592Z,30
2017-01-21T12:19:43.013Z,30
2017-01-21T12:20:42.638Z,30
2017-01-21T12:21:43.086Z,25
2017-01-21T12:22:42.692Z,25
2017-01-21T12:23:42.717Z,25
2017-01-21T12:24:43.153Z,25
2017-01-21T12:25:43.562Z,25
2017-01-21T12:26:43.595Z,25
2017-01-21T12:27:43.216Z,25
2017-01-21T12:28:42.875Z,25
2017-01-21T12:29:42.490Z,25
2017-01-21T12:30:42.890Z,20
2017-01-21T12:31:42.148Z,20
2017-01-21T12:32:43.760Z,20
2017-01-21T12:33:42.181Z,20
2017-01-21T12:34:42.618Z,20
2017-01-21T12:35:43.059Z,20
2017-01-21T12:36:43.064Z,20
2017-01-21T12:37:43.880Z,20
2017-01-21T12:38:43.533Z,20
2017-01-21T12:39:43.135Z,20
2017-01-21T12:40:42.807Z,20
2017-01-21T12:41:43.199Z,20
2017-01-21T12:42:42.424Z,20
2017-01-21T12:43:43.641Z,20
2017-01-21T12:44:43.691Z,15
2017-01-21T12:45:43.315Z,15
2017-01-21T12:46:42.940Z,15
2017-01-21T12:47:43.749Z,15
2017-01-21T12:48:43.782Z,15
2017-01-21T12:49:43.407Z,15
2017-01-21T12:50:43.431Z,15
2017-01-21T12:51:43.856Z,15
2017-01-21T12:52:43.479Z,15
2017-01-21T12:53:42.733Z,15
2017-01-21T12:54:43.151Z,15
2017-01-21T12:55:43.163Z,15
2017-01-21T12:56:43.976Z,15
2017-01-21T12:57:43.617Z,15
2017-01-21T12:58:44.046Z,15
2017-01-21T12:59:44.464Z,15
2017-01-21T13:00:44.097Z,15
2017-01-21T13:01:42.937Z,15
2017-01-21T13:02:42.966Z,15
2017-01-21T13:03:44.568Z,15
2017-01-21T13:04:43.395Z,15
2017-01-21T13:05:43.836Z,15
2017-01-21T13:06:43.456Z,15
2017-01-21T13:07:43.886Z,15
2017-01-21T13:08:43.118Z,15
2017-01-21T13:09:44.319Z,10
2017-01-21T13:10:44.364Z,10
2017-01-21T13:11:44.387Z,10
2017-01-21T13:12:44.390Z,10
2017-01-21T13:13:44.034Z,10
2017-01-21T13:14:44.058Z,10
2017-01-21T13:15:44.092Z,10
2017-01-21T13:16:43.713Z,10
2017-01-21T13:17:43.745Z,10
2017-01-21T13:18:44.239Z,10
2017-01-21T13:20:43.779Z,10
2017-01-21T13:21:44.648Z,10
2017-01-21T13:22:44.677Z,10
2017-01-21T13:23:44.294Z,10
2017-01-21T13:24:43.938Z,10
2017-01-21T13:25:43.955Z,10
2017-01-21T13:26:43.584Z,10
2017-01-21T13:27:44.792Z,10
2017-01-21T13:28:44.030Z,10
2017-01-21T13:29:44.458Z,10
2017-01-21T13:30:44.879Z,10
2017-01-21T13:31:44.513Z,10
2017-01-21T13:32:44.688Z,10
2017-01-21T13:33:45.357Z,10
2017-01-21T13:34:44.981Z,10
2017-01-21T13:35:43.810Z,10
2017-01-21T13:36:43.847Z,10
2017-01-21T13:37:44.264Z,10
2017-01-21T13:38:44.673Z,10
2017-01-21T13:39:44.719Z,10
2017-01-21T13:40:44.346Z,10
2017-01-21T13:41:44.787Z,10
2017-01-21T13:42:45.183Z,10
2017-01-21T13:43:45.216Z,10
2017-01-21T13:44:45.247Z,10
2017-01-21T13:45:44.478Z,10
2017-01-21T13:46:44.106Z,10
2017-01-21T13:47:44.531Z,10
2017-01-21T13:48:44.944Z,10
2017-01-21T13:49:44.969Z,10
2017-01-21T13:50:44.605Z,10
2017-01-21T13:51:44.230Z,10
2017-01-21T13:52:45.056Z,10
2017-01-21T13:53:45.067Z,10
2017-01-21T13:54:45.496Z,10
2017-01-21T13:55:45.113Z,10
2017-01-21T13:56:45.147Z,10
2017-01-21T13:57:45.178Z,10
2017-01-21T13:58:45.207Z,10
2017-01-21T13:59:45.631Z,10
2017-01-21T14:00:45.248Z,10
2017-01-21T14:01:44.886Z,10
2017-01-21T14:02:44.922Z,10
2017-01-21T14:03:45.342Z,10
2017-01-21T14:04:45.755Z,10
2017-01-21T14:05:44.987Z,10
2017-01-21T14:06:45.808Z,10
2017-01-21T14:07:45.433Z,10
2017-01-21T14:08:45.070Z,10
2017-01-21T14:09:45.879Z,5
2017-01-21T14:10:45.919Z,5
2017-01-21T14:11:45.923Z,5
2017-01-21T14:12:45.960Z,5
2017-01-21T14:13:45.989Z,5
2017-01-21T14:14:46.410Z,5
2017-01-21T14:15:46.030Z,5
2017-01-21T14:16:45.267Z,5
2017-01-21T14:17:46.100Z,5
2017-01-21T14:18:45.329Z,5
2017-01-21T14:19:45.737Z,5
2017-01-21T14:20:46.566Z,5
2017-01-21T14:21:45.803Z,5
2017-01-21T14:22:46.228Z,5
2017-01-21T14:23:46.632Z,5
2017-01-21T14:24:46.669Z,5
2017-01-21T14:25:45.898Z,5
2017-01-21T14:26:46.318Z,5
2017-01-21T14:27:45.556Z,5
2017-01-21T14:28:45.975Z,5
2017-01-21T14:29:45.995Z,5
2017-01-21T14:30:46.813Z,5
2017-01-21T14:31:46.564Z,5
2017-01-21T14:32:46.478Z,5
2017-01-21T14:33:46.095Z,5
2017-01-21T14:34:46.536Z,5
2017-01-21T14:35:46.158Z,5